createdAt,value
2023-02-12T00:02:15.975Z,16.27
2023-02-12T00:05:01.807Z,16.42
2023-02-12T00:07:47.535Z,16.25
2023-02-12T00:10:32.824Z,16.02
2023-02-12T00:13:18.446Z,16.42
2023-02-12T00:16:10.256Z,16.77
2023-02-12T00:18:57.573Z,16.67
2023-02-12T00:21:43.002Z,17.45
2023-02-12T00:24:28.812Z,15.93
2023-02-12T00:27:14.476Z,16.05
2023-02-12T00:30:00.194Z,16.48
2023-02-12T00:32:46.355Z,15.60
2023-02-12T00:35:31.652Z,18.42
2023-02-12T00:38:19.231Z,16.58
2023-02-12T00:41:04.743Z,17.83
2023-02-12T00:43:50.761Z,16.77
2023-02-12T00:46:36.623Z,17.02
2023-02-12T00:49:22.276Z,14.85
2023-02-12T00:52:07.553Z,18.33
2023-02-12T00:54:53.597Z,17.10
2023-02-12T00:58:12.198Z,16.27
2023-02-12T01:00:57.774Z,15.75
2023-02-12T01:03:43.687Z,15.35
2023-02-12T01:06:29.476Z,15.20
2023-02-12T01:09:15.035Z,13.73
2023-02-12T01:12:00.277Z,15.60
2023-02-12T01:14:45.912Z,14.77
2023-02-12T01:17:31.594Z,16.92
2023-02-12T01:20:18.678Z,14.88
2023-02-12T01:23:07.007Z,15.27
2023-02-12T01:25:52.870Z,14.95
2023-02-12T01:28:44.248Z,17.25
2023-02-12T01:31:33.121Z,16.30
2023-02-12T01:34:18.980Z,16.77
2023-02-12T01:37:04.760Z,16.38
2023-02-12T01:39:50.445Z,14.82
2023-02-12T01:42:36.381Z,16.10
2023-02-12T01:45:36.874Z,16.48
2023-02-12T01:48:25.647Z,17.52
2023-02-12T01:51:16.795Z,16.38
2023-02-12T01:54:06.970Z,16.58
2023-02-12T01:56:53.271Z,16.85
2023-02-12T01:59:40.852Z,17.17
2023-02-12T02:02:27.032Z,16.30
2023-02-12T02:05:15.586Z,15.18
2023-02-12T02:08:01.194Z,15.07
2023-02-12T02:10:46.894Z,13.40
2023-02-12T02:14:05.112Z,11.85
2023-02-12T02:17:23.169Z,12.88
2023-02-12T02:20:14.369Z,14.00
2023-02-12T02:23:34.544Z,13.02
2023-02-12T02:26:40.375Z,11.98
2023-02-12T02:29:53.151Z,11.48
2023-02-12T02:33:06.023Z,11.63
2023-02-12T02:36:10.089Z,12.50
2023-02-12T02:39:13.840Z,11.70
2023-02-12T02:41:59.394Z,11.70
2023-02-12T02:44:54.275Z,13.43
2023-02-12T02:47:48.604Z,11.40
2023-02-12T02:50:38.507Z,12.48
2023-02-12T02:53:34.429Z,12.27
2023-02-12T02:56:23.345Z,13.45
2023-02-12T02:59:14.862Z,13.23
2023-02-12T03:02:20.594Z,13.98
2023-02-12T03:05:15.949Z,12.80
2023-02-12T03:08:12.594Z,12.65
2023-02-12T03:11:03.763Z,14.88
2023-02-12T03:14:31.642Z,13.63
2023-02-12T03:17:22.109Z,13.82
2023-02-12T03:20:18.824Z,15.05
2023-02-12T03:23:12.966Z,13.07
2023-02-12T03:26:05.109Z,13.55
2023-02-12T03:28:50.999Z,12.90
2023-02-12T03:32:02.565Z,12.65
2023-02-12T03:34:50.911Z,13.10
2023-02-12T03:37:41.795Z,12.32
2023-02-12T03:40:50.710Z,12.93
2023-02-12T03:43:51.158Z,12.68
2023-02-12T03:46:57.927Z,13.27
2023-02-12T03:49:53.422Z,13.23
2023-02-12T03:52:39.221Z,13.15
2023-02-12T03:55:25.067Z,11.88
2023-02-12T03:58:14.836Z,12.38
2023-02-12T04:01:01.484Z,13.68
2023-02-12T04:03:47.476Z,12.32
2023-02-12T04:06:33.431Z,12.93
2023-02-12T04:09:19.739Z,12.00
2023-02-12T04:12:38.907Z,12.25
2023-02-12T04:15:43.006Z,12.57
2023-02-12T04:18:43.990Z,13.18
2023-02-12T04:21:55.560Z,11.95
2023-02-12T04:25:14.618Z,13.10
2023-02-12T04:28:22.164Z,12.38
2023-02-12T04:31:16.115Z,12.77
2023-02-12T04:34:33.015Z,13.27
2023-02-12T04:37:23.108Z,12.70
2023-02-12T04:40:17.675Z,12.00
2023-02-12T04:43:03.169Z,11.82
2023-02-12T04:45:48.842Z,13.57
2023-02-12T04:48:37.179Z,10.38
2023-02-12T04:51:22.614Z,11.07
2023-02-12T04:54:08.272Z,10.27
2023-02-12T04:56:54.304Z,11.82
2023-02-12T04:59:39.936Z,11.63
2023-02-12T05:02:25.460Z,10.35
2023-02-12T05:05:11.236Z,10.77
2023-02-12T05:07:56.869Z,12.13
2023-02-12T05:10:42.467Z,10.23
2023-02-12T05:13:27.968Z,10.48
2023-02-12T05:16:13.476Z,11.07
2023-02-12T05:18:59.109Z,10.85
2023-02-12T05:21:44.495Z,8.85
2023-02-12T05:24:30.286Z,9.80
2023-02-12T05:27:15.751Z,9.80
2023-02-12T05:30:02.514Z,9.63
2023-02-12T05:32:48.324Z,9.80
2023-02-12T05:35:35.624Z,10.07
2023-02-12T05:38:22.407Z,9.48
2023-02-12T05:41:10.700Z,9.45
2023-02-12T05:43:56.001Z,9.60
2023-02-12T05:46:42.591Z,9.90
2023-02-12T05:49:28.308Z,9.80
2023-02-12T05:52:13.808Z,10.80
2023-02-12T05:54:59.318Z,10.35
2023-02-12T05:57:45.148Z,9.27
2023-02-12T06:00:30.824Z,9.98
2023-02-12T06:03:16.407Z,10.00
2023-02-12T06:06:01.989Z,9.43
2023-02-12T06:08:49.369Z,9.63
2023-02-12T06:11:35.098Z,10.77
2023-02-12T06:14:21.570Z,9.80
2023-02-12T06:17:07.392Z,9.23
2023-02-12T06:19:53.297Z,10.30
2023-02-12T06:22:38.733Z,9.02
2023-02-12T06:25:24.324Z,9.32
2023-02-12T06:28:09.965Z,9.93
2023-02-12T06:30:55.736Z,9.95
2023-02-12T06:33:41.463Z,9.13
2023-02-12T06:36:26.973Z,7.38
2023-02-12T06:39:16.981Z,7.85
2023-02-12T06:42:02.554Z,7.82
2023-02-12T06:44:47.958Z,7.65
2023-02-12T06:47:33.543Z,8.82
2023-02-12T06:50:19.353Z,8.20
2023-02-12T06:53:05.079Z,8.45
2023-02-12T06:55:50.532Z,8.95
2023-02-12T06:58:35.835Z,9.10
2023-02-12T07:01:23.981Z,9.20
2023-02-12T07:04:11.027Z,8.63
2023-02-12T07:06:56.683Z,7.85
2023-02-12T07:09:42.311Z,7.57
2023-02-12T07:12:27.863Z,7.43
2023-02-12T07:15:13.477Z,6.93
2023-02-12T07:17:59.249Z,7.07
2023-02-12T07:20:44.816Z,6.00
2023-02-12T07:23:30.571Z,6.35
2023-02-12T07:26:16.372Z,5.25
2023-02-12T07:29:02.238Z,5.75
2023-02-12T07:31:47.970Z,5.30
2023-02-12T07:34:33.389Z,5.93
2023-02-12T07:37:22.640Z,6.05
2023-02-12T07:40:09.117Z,6.32
2023-02-12T07:42:57.789Z,6.07
2023-02-12T07:45:43.262Z,6.55
2023-02-12T07:48:29.075Z,6.97
2023-02-12T07:51:19.329Z,6.72
2023-02-12T07:54:05.298Z,5.85
2023-02-12T07:56:52.155Z,5.95
2023-02-12T07:59:37.663Z,6.45
2023-02-12T08:02:25.610Z,6.55
2023-02-12T08:05:11.299Z,6.35
2023-02-12T08:07:57.148Z,7.07
2023-02-12T08:10:42.738Z,7.30
2023-02-12T08:13:28.108Z,7.70
2023-02-12T08:16:17.219Z,7.18
2023-02-12T08:19:17.517Z,7.28
2023-02-12T08:22:09.314Z,7.95
2023-02-12T08:24:57.458Z,7.90
2023-02-12T08:27:43.127Z,8.50
2023-02-12T08:30:28.819Z,8.60
2023-02-12T08:33:14.265Z,8.60
2023-02-12T08:36:14.680Z,8.20
2023-02-12T08:39:00.181Z,9.20
2023-02-12T08:41:47.616Z,7.85
2023-02-12T08:44:32.961Z,8.88
2023-02-12T08:47:18.611Z,8.63
2023-02-12T08:50:04.398Z,9.00
2023-02-12T08:52:49.818Z,7.63
2023-02-12T08:55:35.527Z,7.75
2023-02-12T08:58:21.077Z,8.57
2023-02-12T09:01:20.294Z,8.52
2023-02-12T09:04:06.560Z,8.65
2023-02-12T09:06:53.171Z,7.70
2023-02-12T09:09:39.045Z,7.63
2023-02-12T09:12:24.700Z,8.15
2023-02-12T09:15:10.228Z,7.85
2023-02-12T09:17:55.886Z,7.47
2023-02-12T09:20:43.740Z,6.63
2023-02-12T09:23:29.532Z,7.75
2023-02-12T09:26:17.572Z,6.10
2023-02-12T09:29:06.384Z,6.18
2023-02-12T09:31:56.678Z,6.68
2023-02-12T09:34:47.890Z,6.00
2023-02-12T09:37:37.605Z,5.95
2023-02-12T09:40:46.353Z,5.80
2023-02-12T09:43:46.027Z,5.38
2023-02-12T09:47:13.411Z,4.07
2023-02-12T09:50:38.085Z,3.85
2023-02-12T09:53:30.546Z,3.22
2023-02-12T09:56:23.723Z,3.43
2023-02-12T09:59:17.530Z,3.35
2023-02-12T10:02:03.000Z,3.45
2023-02-12T10:05:01.321Z,2.92
2023-02-12T10:08:14.319Z,3.58
2023-02-12T10:11:11.851Z,3.05
2023-02-12T10:14:05.979Z,3.13
2023-02-12T10:16:58.092Z,3.47
2023-02-12T10:20:02.484Z,2.50
2023-02-12T10:23:11.173Z,3.22
2023-02-12T10:26:07.851Z,2.95
2023-02-12T10:28:57.760Z,3.08
2023-02-12T10:31:49.006Z,2.00
2023-02-12T10:34:36.989Z,2.25
2023-02-12T10:37:34.043Z,2.35
2023-02-12T10:40:32.698Z,2.60
2023-02-12T10:43:18.469Z,1.95
2023-02-12T10:46:04.180Z,2.00
2023-02-12T10:48:58.887Z,2.25
2023-02-12T10:51:53.623Z,1.98
2023-02-12T10:54:44.942Z,1.90
2023-02-12T10:57:31.616Z,2.15
2023-02-12T11:00:28.950Z,2.13
2023-02-12T11:03:15.499Z,1.52
2023-02-12T11:06:22.658Z,1.75
2023-02-12T11:09:35.157Z,2.10
2023-02-12T11:12:48.308Z,2.08
2023-02-12T11:15:48.867Z,1.83
2023-02-12T11:18:37.336Z,1.88
2023-02-12T11:21:23.617Z,2.05
2023-02-12T11:24:32.549Z,1.52
2023-02-12T11:27:26.723Z,2.38
2023-02-12T11:30:21.998Z,1.92
2023-02-12T11:33:31.159Z,2.05
2023-02-12T11:36:24.726Z,2.00
2023-02-12T11:39:35.306Z,2.10
2023-02-12T11:42:25.753Z,1.80
2023-02-12T11:45:18.463Z,2.35
2023-02-12T11:48:34.786Z,1.80
2023-02-12T11:51:29.397Z,2.33
2023-02-12T11:54:28.344Z,2.35
2023-02-12T11:57:39.514Z,2.58
2023-02-12T12:00:52.912Z,1.90
2023-02-12T12:04:12.870Z,1.90
2023-02-12T12:07:06.031Z,1.75
2023-02-12T12:09:58.149Z,2.05
2023-02-12T12:12:58.567Z,2.17
2023-02-12T12:16:08.979Z,1.73
2023-02-12T12:19:22.118Z,1.85
2023-02-12T12:22:44.424Z,2.08
2023-02-12T12:25:41.130Z,2.10
2023-02-12T12:28:34.709Z,2.08
2023-02-12T12:31:33.742Z,2.20
2023-02-12T12:34:22.498Z,2.33
2023-02-12T12:37:28.812Z,1.90
2023-02-12T12:40:40.531Z,2.53
2023-02-12T12:43:57.759Z,1.88
2023-02-12T12:46:52.252Z,2.20
2023-02-12T12:50:00.040Z,1.55
2023-02-12T12:53:21.018Z,2.20
2023-02-12T12:56:24.533Z,2.72
2023-02-12T12:59:29.945Z,1.98
2023-02-12T13:02:42.505Z,2.30
2023-02-12T13:05:40.334Z,2.03
2023-02-12T13:08:57.845Z,2.30
2023-02-12T13:12:03.510Z,3.17
2023-02-12T13:15:07.811Z,2.13
2023-02-12T13:17:56.460Z,2.15
2023-02-12T13:20:59.702Z,2.08
2023-02-12T13:24:00.001Z,1.98
2023-02-12T13:26:52.853Z,1.83
2023-02-12T13:29:50.707Z,2.07
2023-02-12T13:32:43.404Z,2.35
2023-02-12T13:35:31.588Z,2.10
2023-02-12T13:38:33.283Z,1.60
2023-02-12T13:41:21.260Z,2.15
2023-02-12T13:44:31.344Z,2.25
2023-02-12T13:47:23.848Z,2.40
2023-02-12T13:50:40.482Z,2.15
2023-02-12T13:53:28.861Z,2.13
2023-02-12T13:56:44.836Z,2.38
2023-02-12T13:59:33.289Z,2.60
2023-02-12T14:02:26.893Z,2.58
2023-02-12T14:05:31.732Z,2.17
2023-02-12T14:08:48.283Z,2.35
2023-02-12T14:11:34.369Z,2.70
2023-02-12T14:14:34.138Z,2.85
2023-02-12T14:17:29.205Z,2.55
2023-02-12T14:20:26.933Z,2.65
2023-02-12T14:23:27.929Z,3.22
2023-02-12T14:26:23.087Z,2.90
2023-02-12T14:29:21.204Z,2.40
2023-02-12T14:32:45.232Z,3.10
2023-02-12T14:35:31.211Z,2.65
2023-02-12T14:38:16.539Z,2.70
2023-02-12T14:41:34.179Z,2.60
2023-02-12T14:44:21.486Z,2.65
2023-02-12T14:47:34.820Z,2.70
2023-02-12T14:50:28.707Z,2.70
2023-02-12T14:53:30.802Z,3.45
2023-02-12T14:56:23.650Z,2.85
2023-02-12T14:59:17.011Z,3.40
2023-02-12T15:02:05.401Z,3.10
2023-02-12T15:04:53.160Z,4.18
2023-02-12T15:07:48.594Z,5.07
2023-02-12T15:11:18.853Z,6.50
2023-02-12T15:14:28.058Z,5.70
2023-02-12T15:17:25.142Z,7.25
2023-02-12T15:20:19.707Z,7.05
2023-02-12T15:23:35.970Z,5.25
2023-02-12T15:26:24.172Z,6.18
2023-02-12T15:29:43.791Z,4.55
2023-02-12T15:32:31.001Z,3.90
2023-02-12T15:35:27.232Z,3.78
2023-02-12T15:38:41.812Z,2.95
2023-02-12T15:41:33.987Z,2.80
2023-02-12T15:44:28.749Z,3.92
2023-02-12T15:47:17.166Z,3.90
2023-02-12T15:50:03.398Z,4.93
2023-02-12T15:52:50.753Z,4.18
2023-02-12T15:55:41.450Z,3.30
2023-02-12T15:58:43.184Z,3.25
2023-02-12T16:01:34.096Z,3.00
2023-02-12T16:04:20.109Z,3.65
2023-02-12T16:07:07.516Z,3.47
2023-02-12T16:09:54.249Z,4.07
2023-02-12T16:12:41.579Z,3.88
2023-02-12T16:15:32.241Z,3.95
2023-02-12T16:18:26.081Z,4.13
2023-02-12T16:21:19.157Z,3.92
2023-02-12T16:24:18.623Z,5.13
2023-02-12T16:27:15.366Z,3.88
2023-02-12T16:30:05.249Z,3.13
2023-02-12T16:32:51.176Z,3.08
2023-02-12T16:35:36.812Z,2.90
2023-02-12T16:38:44.773Z,3.65
2023-02-12T16:41:35.105Z,3.50
2023-02-12T16:44:23.879Z,2.80
2023-02-12T16:47:21.169Z,3.67
2023-02-12T16:50:15.403Z,4.22
2023-02-12T16:53:22.490Z,4.53
2023-02-12T16:56:15.475Z,4.60
2023-02-12T16:59:02.162Z,4.05
2023-02-12T17:02:03.921Z,5.10
2023-02-12T17:04:49.822Z,5.22
2023-02-12T17:07:36.016Z,4.35
2023-02-12T17:10:21.833Z,6.60
2023-02-12T17:13:07.973Z,6.18
2023-02-12T17:15:59.733Z,5.30
2023-02-12T17:18:51.206Z,5.15
2023-02-12T17:21:46.659Z,4.95
2023-02-12T17:24:36.729Z,5.88
2023-02-12T17:27:22.974Z,6.20
2023-02-12T17:30:09.425Z,6.40
2023-02-12T17:32:55.564Z,5.38
2023-02-12T17:35:44.792Z,6.82
2023-02-12T17:38:31.225Z,5.90
2023-02-12T17:41:20.609Z,6.05
2023-02-12T17:44:08.981Z,5.32
2023-02-12T17:46:55.719Z,6.90
2023-02-12T17:49:42.437Z,6.07
2023-02-12T17:52:31.017Z,6.45
2023-02-12T17:55:18.003Z,5.40
2023-02-12T17:58:03.850Z,5.57
2023-02-12T18:00:49.927Z,5.15
2023-02-12T18:03:36.086Z,5.05
2023-02-12T18:06:25.629Z,4.95
2023-02-12T18:09:11.354Z,5.53
2023-02-12T18:11:57.007Z,5.68
2023-02-12T18:14:44.242Z,4.57
2023-02-12T18:17:30.032Z,4.85
2023-02-12T18:20:15.739Z,4.20
2023-02-12T18:23:01.161Z,4.35
2023-02-12T18:25:46.664Z,4.53
2023-02-12T18:28:32.706Z,3.63
2023-02-12T18:31:19.059Z,4.38
2023-02-12T18:34:07.850Z,5.68
2023-02-12T18:36:53.775Z,5.32
2023-02-12T18:39:39.751Z,5.13
2023-02-12T18:42:25.313Z,5.32
2023-02-12T18:45:12.529Z,5.72
2023-02-12T18:47:58.201Z,5.57
2023-02-12T18:50:44.672Z,6.00
2023-02-12T18:53:33.726Z,5.57
2023-02-12T18:56:19.120Z,5.65
2023-02-12T18:59:06.185Z,6.88
2023-02-12T19:01:52.365Z,5.95
2023-02-12T19:04:37.948Z,6.28
2023-02-12T19:07:23.328Z,6.10
2023-02-12T19:10:09.308Z,6.22
2023-02-12T19:12:55.975Z,5.25
2023-02-12T19:15:41.728Z,6.07
2023-02-12T19:18:27.513Z,6.80
2023-02-12T19:21:16.260Z,5.72
2023-02-12T19:24:04.981Z,7.03
2023-02-12T19:26:52.525Z,6.68
2023-02-12T19:29:37.894Z,7.22
2023-02-12T19:32:23.800Z,7.60
2023-02-12T19:35:09.213Z,8.15
2023-02-12T19:37:54.839Z,7.28
2023-02-12T19:40:40.519Z,8.13
2023-02-12T19:43:26.039Z,8.68
2023-02-12T19:46:19.398Z,8.68
2023-02-12T19:49:05.802Z,8.63
2023-02-12T19:51:51.762Z,8.98
2023-02-12T19:54:37.209Z,9.75
2023-02-12T19:57:22.734Z,9.05
2023-02-12T20:00:09.219Z,10.77
2023-02-12T20:02:57.192Z,10.48
2023-02-12T20:05:46.624Z,9.38
2023-02-12T20:08:33.441Z,9.70
2023-02-12T20:11:22.757Z,9.88
2023-02-12T20:14:10.961Z,9.38
2023-02-12T20:16:58.701Z,9.98
2023-02-12T20:19:44.849Z,9.88
2023-02-12T20:22:46.948Z,9.93
2023-02-12T20:25:41.928Z,9.65
2023-02-12T20:28:27.973Z,10.52
2023-02-12T20:31:16.791Z,10.50
2023-02-12T20:34:05.994Z,10.60
2023-02-12T20:36:58.145Z,10.98
2023-02-12T20:39:44.236Z,9.75
2023-02-12T20:42:29.508Z,10.20
2023-02-12T20:45:15.258Z,10.32
2023-02-12T20:48:01.239Z,10.13
2023-02-12T20:50:47.123Z,9.27
2023-02-12T20:53:39.280Z,10.15
2023-02-12T20:56:27.197Z,9.95
2023-02-12T20:59:12.840Z,11.27
2023-02-12T21:01:58.421Z,9.95
2023-02-12T21:04:44.476Z,10.35
2023-02-12T21:07:34.023Z,11.68
2023-02-12T21:10:22.090Z,10.73
2023-02-12T21:13:09.345Z,11.13
2023-02-12T21:16:13.606Z,12.88
2023-02-12T21:18:59.649Z,11.85
2023-02-12T21:21:45.673Z,11.20
2023-02-12T21:24:31.141Z,12.90
2023-02-12T21:27:16.509Z,12.55
2023-02-12T21:30:02.364Z,11.35
2023-02-12T21:32:48.076Z,11.90
2023-02-12T21:35:36.465Z,12.82
2023-02-12T21:38:22.377Z,12.52
2023-02-12T21:41:25.873Z,13.90
2023-02-12T21:46:59.018Z,12.13
2023-02-12T21:49:44.853Z,12.25
2023-02-12T21:52:30.522Z,13.32
2023-02-12T21:55:16.249Z,13.40
2023-02-12T21:58:01.912Z,12.65
2023-02-12T22:00:50.590Z,12.85
2023-02-12T22:03:37.097Z,13.48
2023-02-12T22:06:24.965Z,14.10
2023-02-12T22:09:12.015Z,13.18
2023-02-12T22:11:57.711Z,14.65
2023-02-12T22:14:42.873Z,15.48
2023-02-12T22:17:28.626Z,16.40
2023-02-12T22:20:14.843Z,16.92
2023-02-12T22:23:00.583Z,17.63
2023-02-12T22:25:46.332Z,18.40
2023-02-12T22:28:33.277Z,20.00
2023-02-12T22:31:22.858Z,20.73
2023-02-12T22:34:13.206Z,19.80
2023-02-12T22:36:58.906Z,20.80
2023-02-12T22:39:44.727Z,21.17
2023-02-12T22:42:29.968Z,19.60
2023-02-12T22:45:15.963Z,21.48
2023-02-12T22:48:01.950Z,20.20
2023-02-12T22:50:47.962Z,19.75
2023-02-12T22:53:33.908Z,19.08
2023-02-12T22:56:20.214Z,21.05
2023-02-12T22:59:06.033Z,20.40
2023-02-12T23:01:51.939Z,22.27
2023-02-12T23:04:37.752Z,19.80
2023-02-12T23:07:23.744Z,19.38
2023-02-12T23:10:09.429Z,21.35
2023-02-12T23:12:54.888Z,22.33
2023-02-12T23:15:40.450Z,22.40
2023-02-12T23:18:26.756Z,22.40
2023-02-12T23:21:12.971Z,20.20
2023-02-12T23:23:59.359Z,23.55
2023-02-12T23:26:45.435Z,22.10
2023-02-12T23:29:31.229Z,20.92
2023-02-12T23:32:16.995Z,23.20
2023-02-12T23:35:02.698Z,22.85
2023-02-12T23:37:48.661Z,21.73
2023-02-12T23:40:34.776Z,21.95
2023-02-12T23:43:20.760Z,21.67
2023-02-12T23:46:06.720Z,22.55
2023-02-12T23:48:52.518Z,24.40
2023-02-12T23:51:38.417Z,25.35
2023-02-12T23:54:23.930Z,24.65
2023-02-12T23:57:09.714Z,25.63
2023-02-12T23:59:55.352Z,26.45
